Time;durP1;ratioP1;P1;durP2;ratioP2;P2;SDS_P1;SDS_P2;PMS_P1;PMS_P2;Temp;Humidity;BMP_temperature;BMP_pressure;BME280_temperature;BME280_humidity;BME280_pressure;Samples;Min_cycle;Max_cycle;Signal;HPM_P1;HPM_P2
2022/05/06 00:00:57;;;;;;;70.75;39.88;;;11.60;99.90;;;;;;5038656;28;20060;-68
2022/05/06 00:03:23;;;;;;;67.18;38.15;;;11.60;99.90;;;;;;5057067;28;20040;-69
2022/05/06 00:05:49;;;;;;;67.32;40.67;;;11.60;99.90;;;;;;5056615;28;20124;-69
2022/05/06 00:08:14;;;;;;;78.88;42.58;;;11.60;99.90;;;;;;5056459;28;20081;-69
2022/05/06 00:10:40;;;;;;;67.95;41.33;;;11.60;99.90;;;;;;5056517;28;20049;-68
2022/05/06 00:13:06;;;;;;;69.70;39.83;;;11.60;99.90;;;;;;5056702;28;20079;-68
2022/05/06 00:15:31;;;;;;;67.57;40.25;;;11.70;99.90;;;;;;5056002;28;20044;-68
2022/05/06 00:17:57;;;;;;;72.40;41.42;;;11.60;99.90;;;;;;5051446;28;20037;-69
2022/05/06 00:20:22;;;;;;;63.35;38.17;;;11.60;99.90;;;;;;5036840;28;20064;-68
2022/05/06 00:22:48;;;;;;;78.65;42.38;;;11.50;99.90;;;;;;5036320;28;20068;-68
2022/05/06 00:25:13;;;;;;;72.55;40.95;;;11.50;99.90;;;;;;5036629;28;20085;-68
2022/05/06 00:27:42;;;;;;;76.35;43.28;;;11.50;99.90;;;;;;5036557;28;20073;-69
2022/05/06 00:30:09;;;;;;;73.53;42.85;;;11.50;99.90;;;;;;5036410;28;20124;-69
2022/05/06 00:32:34;;;;;;;68.30;40.28;;;11.40;99.90;;;;;;5054949;28;20040;-68
2022/05/06 00:35:00;;;;;;;79.43;44.67;;;11.40;99.90;;;;;;5056248;28;20114;-69
2022/05/06 00:37:25;;;;;;;75.05;43.90;;;11.40;99.90;;;;;;5055451;28;20056;-69
2022/05/06 00:39:51;;;;;;;75.55;45.53;;;11.40;99.90;;;;;;5055962;28;20095;-68
2022/05/06 00:42:17;;;;;;;76.95;44.22;;;11.40;99.90;;;;;;5056373;28;20041;-68
2022/05/06 00:44:43;;;;;;;75.35;45.20;;;11.40;99.90;;;;;;5056101;28;20077;-68
2022/05/06 00:47:09;;;;;;;73.80;42.08;;;11.40;99.90;;;;;;5055947;28;20111;-68
2022/05/06 00:49:36;;;;;;;78.35;45.45;;;11.50;99.90;;;;;;5055249;28;20572;-68
2022/05/06 00:52:03;;;;;;;80.60;44.30;;;11.40;99.90;;;;;;5038384;28;20045;-68
2022/05/06 00:54:34;;;;;;;75.82;45.83;;;11.40;99.90;;;;;;5035936;28;20107;-69
2022/05/06 00:57:00;;;;;;;69.30;44.33;;;11.50;99.90;;;;;;5035613;28;20432;-68
2022/05/06 00:59:26;;;;;;;76.05;44.67;;;11.40;99.90;;;;;;5035979;28;20049;-69
2022/05/06 01:01:52;;;;;;;74.57;45.67;;;11.40;99.90;;;;;;5036024;28;20115;-68
2022/05/06 01:04:18;;;;;;;75.15;46.15;;;11.50;99.90;;;;;;5048006;28;20048;-68
2022/05/06 01:06:45;;;;;;;69.90;43.67;;;11.50;99.90;;;;;;5055692;28;20128;-68
2022/05/06 01:09:18;;;;;;;68.03;43.92;;;11.40;99.90;;;;;;5055625;28;20045;-68
2022/05/06 01:11:44;;;;;;;75.53;46.08;;;11.50;99.90;;;;;;5055490;28;20091;-68
2022/05/06 01:14:11;;;;;;;72.05;44.47;;;11.50;99.90;;;;;;5055533;28;20095;-68
2022/05/06 01:16:37;;;;;;;74.35;44.65;;;11.40;99.90;;;;;;5054863;28;20099;-68
2022/05/06 01:19:04;;;;;;;75.43;45.80;;;11.40;99.90;;;;;;5055514;28;20443;-69
2022/05/06 01:21:35;;;;;;;74.22;45.28;;;11.40;99.90;;;;;;5055372;28;20087;-69
2022/05/06 01:24:01;;;;;;;78.43;44.22;;;11.40;99.90;;;;;;5055416;28;20053;-69
2022/05/06 01:26:53;;;;;;;83.80;47.35;;;11.30;99.90;;;;;;5055500;28;20106;-68
2022/05/06 01:29:21;;;;;;;76.80;42.80;;;11.20;99.90;;;;;;5055492;28;20041;-68
2022/05/06 01:31:46;;;;;;;85.43;46.53;;;11.20;99.90;;;;;;5054333;28;20463;-69
2022/05/06 01:34:15;;;;;;;88.70;48.47;;;11.10;99.90;;;;;;5055104;28;20091;-68
2022/05/06 01:36:41;;;;;;;92.15;49.33;;;11.20;99.90;;;;;;5053664;28;20048;-68
2022/05/06 01:39:11;;;;;;;90.15;46.97;;;11.20;99.90;;;;;;5055216;28;20052;-69
2022/05/06 01:41:38;;;;;;;85.80;45.33;;;11.10;99.90;;;;;;5037577;28;20056;-68
2022/05/06 01:44:07;;;;;;;89.53;45.13;;;11.10;99.90;;;;;;5054779;28;20106;-69
2022/05/06 01:46:35;;;;;;;83.57;45.92;;;11.10;99.90;;;;;;5054218;28;20136;-69
2022/05/06 01:49:02;;;;;;;87.25;47.38;;;11.00;99.90;;;;;;5055039;28;20098;-68
2022/05/06 01:51:29;;;;;;;82.22;45.72;;;11.00;99.90;;;;;;5054435;28;20033;-68
2022/05/06 01:53:54;;;;;;;89.68;45.70;;;11.00;99.90;;;;;;5054967;28;20044;-69
2022/05/06 01:56:20;;;;;;;90.53;46.50;;;11.10;99.90;;;;;;5055043;28;20045;-68
2022/05/06 01:58:47;;;;;;;197.65;46.22;;;11.10;99.90;;;;;;5054677;28;20049;-68
2022/05/06 02:01:12;;;;;;;93.05;47.72;;;11.00;99.90;;;;;;5054027;28;20067;-69
2022/05/06 02:06:23;;;;;;;88.40;43.63;;;11.00;99.90;;;;;;5054108;28;20048;-68
2022/05/06 02:08:48;;;;;;;144.07;46.22;;;11.00;99.90;;;;;;5054889;28;20399;-68
2022/05/06 02:11:15;;;;;;;143.73;47.03;;;10.90;99.90;;;;;;5054146;28;20041;-68
2022/05/06 02:13:40;;;;;;;144.77;44.85;;;10.90;99.90;;;;;;5054834;28;20071;-68
2022/05/06 02:16:07;;;;;;;132.07;44.30;;;10.90;99.90;;;;;;5053670;28;20045;-68
2022/05/06 02:18:32;;;;;;;150.50;40.83;;;10.80;99.90;;;;;;5054760;28;20068;-69
2022/05/06 02:20:59;;;;;;;193.30;42.92;;;10.80;99.90;;;;;;5054621;28;20451;-68
2022/05/06 02:23:25;;;;;;;175.05;42.25;;;10.80;99.90;;;;;;5054248;28;20136;-68
2022/05/06 02:25:51;;;;;;;229.85;38.90;;;10.70;99.90;;;;;;5054547;28;20379;-68
2022/05/06 02:28:17;;;;;;;184.80;38.05;;;10.70;99.90;;;;;;5053598;28;20041;-69
2022/05/06 02:33:28;;;;;;;213.90;31.80;;;10.60;99.90;;;;;;5054216;28;20053;-69
2022/05/06 02:35:54;;;;;;;181.25;31.98;;;10.50;99.90;;;;;;5054371;28;20052;-68
2022/05/06 02:38:22;;;;;;;111.65;32.22;;;10.50;99.90;;;;;;5054200;28;20105;-69
2022/05/06 02:40:49;;;;;;;103.63;30.00;;;10.50;99.90;;;;;;5037127;28;20048;-68
2022/05/06 02:43:15;;;;;;;124.38;27.55;;;10.40;99.90;;;;;;5053164;28;20352;-69
2022/05/06 02:45:42;;;;;;;110.05;24.80;;;10.40;99.90;;;;;;5042598;28;20112;-68
2022/05/06 02:48:08;;;;;;;107.13;23.98;;;10.30;99.90;;;;;;5054403;28;20419;-68
2022/05/06 02:50:33;;;;;;;120.40;29.25;;;10.30;99.90;;;;;;5054305;28;20052;-69
2022/05/06 02:53:00;;;;;;;94.45;27.00;;;10.30;99.90;;;;;;5053929;28;20049;-68
2022/05/06 02:55:25;;;;;;;96.05;23.40;;;10.30;99.90;;;;;;5054238;28;20079;-68
2022/05/06 02:57:51;;;;;;;130.32;26.67;;;10.30;99.90;;;;;;5053070;28;20029;-68
2022/05/06 03:00:17;;;;;;;108.72;23.67;;;10.30;99.90;;;;;;5036931;28;20055;-68
2022/05/06 03:02:43;;;;;;;128.75;24.02;;;10.20;99.90;;;;;;5038139;28;20052;-68
2022/05/06 03:05:09;;;;;;;119.03;24.25;;;10.10;99.90;;;;;;5040746;28;20053;-68
2022/05/06 03:07:35;;;;;;;76.47;23.60;;;10.10;99.90;;;;;;5057791;28;20099;-68
2022/05/06 03:10:02;;;;;;;81.68;23.73;;;10.20;99.90;;;;;;5057920;28;20041;-68
2022/05/06 03:12:29;;;;;;;75.15;22.75;;;10.10;99.90;;;;;;5056769;28;20107;-68
2022/05/06 03:14:55;;;;;;;57.00;20.75;;;10.10;99.90;;;;;;5057635;28;20080;-69
2022/05/06 03:17:21;;;;;;;115.25;21.30;;;10.10;99.90;;;;;;5057666;28;20080;-68
2022/05/06 03:19:46;;;;;;;77.63;18.20;;;10.10;99.90;;;;;;5057348;28;20371;-69
2022/05/06 03:22:15;;;;;;;54.85;18.13;;;10.00;99.90;;;;;;5057722;28;20079;-69
2022/05/06 03:24:42;;;;;;;69.97;18.85;;;10.00;99.90;;;;;;5057515;28;20147;-69
2022/05/06 03:27:59;;;;;;;46.15;18.05;;;10.00;99.90;;;;;;5057118;28;20087;-68
2022/05/06 03:29:53;;;;;;;49.08;17.52;;;10.00;99.90;;;;;;5057633;28;20079;-68
2022/05/06 03:32:19;;;;;;;73.50;17.15;;;10.10;99.90;;;;;;5057004;28;20044;-68
2022/05/06 03:34:44;;;;;;;69.68;16.95;;;10.00;99.90;;;;;;5057253;28;20057;-68
2022/05/06 03:37:11;;;;;;;68.57;18.33;;;10.00;99.90;;;;;;5057606;28;20057;-68
2022/05/06 03:39:37;;;;;;;63.38;18.20;;;10.00;99.90;;;;;;5040106;28;20458;-68
2022/05/06 03:42:02;;;;;;;58.33;17.05;;;10.00;99.90;;;;;;5056512;28;20041;-68
2022/05/06 03:44:28;;;;;;;58.60;17.85;;;10.10;99.90;;;;;;5057237;28;20064;-68
2022/05/06 03:46:53;;;;;;;50.17;18.48;;;10.00;99.90;;;;;;5039882;28;20059;-68
2022/05/06 03:49:19;;;;;;;65.15;18.52;;;10.00;99.90;;;;;;5057132;28;20135;-68
2022/05/06 03:51:48;;;;;;;61.75;19.75;;;10.00;99.90;;;;;;5039964;28;20136;-68
2022/05/06 03:54:13;;;;;;;68.57;18.80;;;10.00;99.90;;;;;;5039749;28;20048;-68
2022/05/06 03:56:39;;;;;;;46.15;17.27;;;10.00;99.90;;;;;;5038469;28;20040;-68
2022/05/06 03:59:04;;;;;;;45.13;20.15;;;10.00;99.90;;;;;;5057064;28;20103;-68
2022/05/06 04:01:30;;;;;;;91.63;18.55;;;10.10;99.90;;;;;;5039504;28;20383;-68
2022/05/06 04:03:56;;;;;;;82.35;18.08;;;10.00;99.90;;;;;;5056918;28;20045;-69
2022/05/06 04:06:21;;;;;;;79.20;18.95;;;10.00;99.90;;;;;;5056948;28;20063;-68
2022/05/06 04:08:47;;;;;;;84.28;18.13;;;10.00;99.90;;;;;;5056900;28;20466;-68
2022/05/06 04:11:13;;;;;;;71.07;16.67;;;10.00;99.90;;;;;;5055886;28;20045;-68
2022/05/06 04:13:39;;;;;;;56.65;16.75;;;9.90;99.90;;;;;;5056738;28;20124;-68
2022/05/06 04:16:06;;;;;;;44.47;16.10;;;9.90;99.90;;;;;;5056777;28;20156;-68
2022/05/06 04:18:32;;;;;;;88.25;18.05;;;9.90;99.90;;;;;;5055200;28;20536;-68
2022/05/06 04:23:42;;;;;;;38.57;14.50;;;9.90;99.90;;;;;;5056539;28;20048;-68
2022/05/06 04:26:10;;;;;;;45.03;14.98;;;10.00;99.90;;;;;;5056633;28;20124;-68
2022/05/06 04:28:36;;;;;;;65.82;14.93;;;9.90;99.90;;;;;;5039083;28;20044;-68
2022/05/06 04:31:02;;;;;;;33.80;16.05;;;10.00;99.90;;;;;;5056125;28;20118;-68
2022/05/06 04:33:28;;;;;;;43.60;14.90;;;10.00;99.90;;;;;;5055131;28;20041;-68
2022/05/06 04:35:56;;;;;;;44.13;15.30;;;10.00;99.90;;;;;;5056303;28;20048;-68
2022/05/06 04:38:22;;;;;;;50.45;16.67;;;10.00;99.90;;;;;;5056166;28;20037;-68
2022/05/06 04:40:48;;;;;;;45.80;15.05;;;10.10;99.90;;;;;;5056340;28;20102;-68
2022/05/06 04:43:16;;;;;;;42.90;15.05;;;10.00;99.90;;;;;;5056417;28;20128;-68
2022/05/06 04:45:46;;;;;;;42.55;14.30;;;10.00;99.90;;;;;;5056027;28;20059;-68
2022/05/06 04:48:12;;;;;;;36.42;14.25;;;10.10;99.90;;;;;;5054920;28;20087;-68
2022/05/06 04:50:39;;;;;;;53.75;15.10;;;10.00;99.90;;;;;;5055996;28;20041;-68
2022/05/06 04:53:07;;;;;;;56.53;16.10;;;10.10;99.90;;;;;;5056126;28;20049;-68
2022/05/06 04:55:48;;;;;;;41.25;16.58;;;10.00;99.90;;;;;;5056073;28;20036;-68
2022/05/06 04:58:17;;;;;;;37.47;15.25;;;10.10;99.90;;;;;;5055613;28;20064;-68
2022/05/06 05:00:43;;;;;;;27.77;14.98;;;10.20;99.90;;;;;;5055013;28;20138;-68
2022/05/06 05:03:08;;;;;;;84.70;16.00;;;10.10;99.90;;;;;;5054919;28;20057;-68
2022/05/06 05:05:34;;;;;;;55.65;14.80;;;10.10;99.90;;;;;;5055633;28;20045;-68
2022/05/06 05:08:00;;;;;;;56.17;15.95;;;10.10;99.90;;;;;;5055795;28;20076;-68
2022/05/06 05:10:25;;;;;;;32.20;14.40;;;10.10;99.90;;;;;;5038457;28;20083;-68
2022/05/06 05:12:51;;;;;;;39.45;16.08;;;10.20;99.90;;;;;;5055393;28;20447;-68
2022/05/06 05:15:17;;;;;;;55.50;15.38;;;10.30;99.90;;;;;;5054646;28;20049;-68
2022/05/06 05:17:44;;;;;;;43.65;17.73;;;10.30;99.90;;;;;;5055466;28;20076;-69
2022/05/06 05:20:10;;;;;;;39.53;18.48;;;10.30;99.90;;;;;;5055478;28;20358;-68
2022/05/06 05:22:36;;;;;;;29.63;16.52;;;10.40;99.90;;;;;;5054710;28;20128;-68
2022/05/06 05:25:03;;;;;;;37.33;19.20;;;10.40;99.90;;;;;;5054851;28;20124;-68
2022/05/06 05:27:30;;;;;;;46.47;20.02;;;10.40;99.90;;;;;;5055014;28;20045;-68
2022/05/06 05:29:56;;;;;;;51.45;19.33;;;10.40;99.90;;;;;;5055255;28;20111;-68
2022/05/06 05:32:22;;;;;;;42.33;17.83;;;10.50;99.90;;;;;;5055225;28;20439;-68
2022/05/06 05:34:48;;;;;;;33.50;18.88;;;10.40;99.90;;;;;;5054176;28;20053;-67
2022/05/06 05:37:14;;;;;;;35.15;17.95;;;10.40;99.90;;;;;;5055398;28;20036;-68
2022/05/06 05:39:39;;;;;;;39.00;18.23;;;10.50;99.90;;;;;;5037796;28;20121;-69
2022/05/06 05:42:05;;;;;;;34.17;18.75;;;10.50;99.90;;;;;;5034773;28;20063;-70
2022/05/06 05:50:04;;;;;;;35.72;19.80;;;10.60;99.90;;;;;;5055065;28;20443;-67
2022/05/06 05:52:29;;;;;;;43.60;21.27;;;10.60;99.90;;;;;;5054798;28;20037;-67
2022/05/06 05:54:55;;;;;;;37.30;20.98;;;10.60;99.90;;;;;;5054883;28;20118;-67
2022/05/06 05:57:22;;;;;;;42.50;21.13;;;10.70;99.90;;;;;;5054208;28;20052;-67
2022/05/06 05:59:48;;;;;;;43.25;22.30;;;10.70;99.90;;;;;;5043463;28;20049;-67
2022/05/06 06:02:16;;;;;;;45.35;22.63;;;10.70;99.90;;;;;;5034967;28;20436;-68
2022/05/06 06:04:43;;;;;;;38.47;23.33;;;10.70;99.90;;;;;;5017110;28;20072;-69
2022/05/06 06:07:09;;;;;;;38.13;22.20;;;10.70;99.90;;;;;;5034563;28;20053;-68
2022/05/06 06:09:34;;;;;;;36.95;22.58;;;10.70;99.90;;;;;;5034724;28;20060;-71
2022/05/06 06:12:00;;;;;;;40.55;24.15;;;10.70;99.90;;;;;;5048605;28;20088;-70
2022/05/06 06:14:25;;;;;;;46.42;23.40;;;10.70;99.90;;;;;;5054911;28;20044;-69
2022/05/06 06:16:51;;;;;;;38.95;23.10;;;10.70;99.90;;;;;;5020984;28;20044;-69
2022/05/06 06:19:17;;;;;;;33.85;21.38;;;10.70;99.90;;;;;;5054990;28;20467;-68
2022/05/06 06:21:43;;;;;;;33.33;19.40;;;10.70;99.90;;;;;;5054535;28;20045;-67
2022/05/06 06:24:09;;;;;;;35.63;21.02;;;10.70;99.90;;;;;;5036089;28;20063;-69
2022/05/06 06:26:35;;;;;;;32.17;20.17;;;10.70;99.90;;;;;;5054006;28;20044;-68
2022/05/06 06:29:02;;;;;;;31.55;18.80;;;10.80;99.90;;;;;;5054246;28;20033;-69
2022/05/06 06:31:30;;;;;;;29.20;19.08;;;10.80;99.90;;;;;;5054658;28;20045;-69
2022/05/06 06:33:57;;;;;;;31.08;18.70;;;10.80;99.90;;;;;;5054465;28;20087;-69
2022/05/06 06:36:23;;;;;;;26.50;16.73;;;10.90;99.90;;;;;;5037284;28;20049;-69
2022/05/06 06:38:49;;;;;;;24.38;15.68;;;10.90;99.90;;;;;;5057692;28;20072;-69
2022/05/06 06:41:14;;;;;;;24.70;16.42;;;11.00;99.90;;;;;;5058709;28;20383;-69
2022/05/06 06:43:40;;;;;;;25.30;16.33;;;11.00;99.90;;;;;;5058431;28;20045;-68
2022/05/06 06:46:05;;;;;;;23.80;15.93;;;11.00;99.90;;;;;;5058579;28;20332;-68
2022/05/06 06:48:31;;;;;;;20.08;14.90;;;11.10;99.90;;;;;;5058469;28;20443;-69
2022/05/06 06:50:57;;;;;;;19.00;13.80;;;11.10;99.90;;;;;;5058115;28;20132;-68
2022/05/06 06:53:22;;;;;;;17.08;12.73;;;11.10;99.90;;;;;;5057491;28;20155;-68
2022/05/06 06:55:48;;;;;;;14.52;11.27;;;11.20;99.90;;;;;;5057478;28;20530;-68
2022/05/06 06:58:14;;;;;;;14.15;10.20;;;11.20;99.90;;;;;;5058015;28;20041;-70
2022/05/06 07:00:42;;;;;;;11.38;9.85;;;11.30;99.90;;;;;;5040749;28;20083;-69
2022/05/06 07:03:09;;;;;;;13.05;10.27;;;11.30;99.90;;;;;;5039697;28;20041;-73
2022/05/06 07:05:34;;;;;;;13.60;10.85;;;11.60;99.90;;;;;;5057655;28;20048;-68
2022/05/06 07:13:30;;;;;;;11.50;10.30;;;11.60;99.90;;;;;;5057965;28;20060;-68
2022/05/06 07:15:56;;;;;;;10.93;9.38;;;11.80;99.90;;;;;;5057600;28;20080;-68
2022/05/06 07:18:21;;;;;;;11.85;9.32;;;11.90;99.90;;;;;;5056679;28;20092;-72
2022/05/06 07:20:48;;;;;;;11.02;9.82;;;11.90;99.90;;;;;;5057839;28;20080;-72
2022/05/06 07:23:13;;;;;;;12.10;10.48;;;12.00;99.90;;;;;;5056472;28;20066;-73
2022/05/06 07:25:39;;;;;;;12.57;10.80;;;12.00;99.90;;;;;;5057280;28;20045;-73
2022/05/06 07:28:06;;;;;;;12.20;11.02;;;12.00;99.90;;;;;;5057754;28;20049;-73
2022/05/06 07:30:31;;;;;;;12.02;10.82;;;12.10;99.90;;;;;;5057209;28;20118;-73
2022/05/06 07:32:57;;;;;;;10.85;9.75;;;12.10;99.90;;;;;;5057069;28;20124;-74
2022/05/06 07:35:23;;;;;;;12.15;10.40;;;12.20;99.90;;;;;;5055972;28;20128;-71
2022/05/06 07:37:48;;;;;;;11.90;10.20;;;12.20;99.90;;;;;;5057503;28;20060;-71
2022/05/06 07:40:15;;;;;;;13.02;10.63;;;12.30;99.90;;;;;;5057859;28;20045;-68
2022/05/06 07:42:43;;;;;;;11.82;10.63;;;12.30;99.90;;;;;;5057562;28;20055;-66
2022/05/06 07:45:11;;;;;;;12.05;10.85;;;12.20;99.90;;;;;;5056895;28;20045;-75
2022/05/06 07:47:37;;;;;;;12.52;11.27;;;12.20;99.90;;;;;;5057307;28;20124;-73
2022/05/06 07:50:03;;;;;;;11.48;10.23;;;12.40;99.90;;;;;;5038242;28;20147;-73
2022/05/06 07:52:29;;;;;;;12.43;11.13;;;12.30;99.90;;;;;;5047886;28;20046;-75
2022/05/06 07:54:54;;;;;;;12.48;11.18;;;12.40;99.90;;;;;;5036949;28;20054;-74
2022/05/06 07:57:20;;;;;;;13.10;11.80;;;12.50;99.90;;;;;;5036919;28;20240;-70
2022/05/06 07:59:46;;;;;;;13.57;10.80;;;12.50;99.90;;;;;;5002100;28;20360;-70
2022/05/06 08:04:55;;;;;;;12.10;10.87;;;12.70;99.90;;;;;;5036708;28;20144;-69
2022/05/06 08:07:23;;;;;;;12.38;10.80;;;12.80;99.90;;;;;;5056912;28;20362;-69
2022/05/06 08:09:48;;;;;;;14.73;10.57;;;12.90;99.90;;;;;;5056572;28;20045;-69
2022/05/06 08:12:14;;;;;;;11.75;10.55;;;12.90;99.90;;;;;;5056604;28;20041;-69
2022/05/06 08:14:40;;;;;;;11.82;10.40;;;12.90;99.90;;;;;;5056726;28;20041;-70
2022/05/06 08:17:06;;;;;;;11.82;10.63;;;12.80;99.90;;;;;;5056094;28;20167;-73
2022/05/06 08:19:31;;;;;;;11.43;10.23;;;12.90;99.90;;;;;;5055157;28;20049;-68
2022/05/06 08:21:57;;;;;;;13.35;9.52;;;13.00;99.90;;;;;;5056204;28;20451;-68
2022/05/06 08:24:23;;;;;;;12.25;9.52;;;13.00;99.90;;;;;;5056425;28;20045;-68
2022/05/06 08:26:49;;;;;;;11.88;9.50;;;13.20;99.90;;;;;;5055886;28;20041;-68
2022/05/06 08:29:16;;;;;;;11.48;8.93;;;13.20;99.90;;;;;;5056116;28;20045;-68
2022/05/06 08:31:41;;;;;;;10.20;9.10;;;13.30;99.90;;;;;;5055954;28;20127;-68
2022/05/06 08:34:08;;;;;;;10.45;9.30;;;13.40;99.90;;;;;;5054979;28;20144;-68
2022/05/06 08:36:39;;;;;;;10.75;8.02;;;13.40;99.90;;;;;;5055223;28;20379;-68
2022/05/06 08:39:05;;;;;;;8.48;7.57;;;13.50;99.90;;;;;;5056500;28;20106;-68
2022/05/06 08:41:31;;;;;;;10.05;9.05;;;13.50;99.90;;;;;;5056279;28;20056;-68
2022/05/06 08:50:50;;;;;;;9.85;8.52;;;13.60;99.90;;;;;;5056300;28;20037;-69
2022/05/06 08:52:29;;;;;;;10.95;8.55;;;13.80;99.90;;;;;;5047515;28;20085;-69
2022/05/06 08:54:55;;;;;;;8.48;7.07;;;14.00;99.90;;;;;;5055961;28;20041;-68
2022/05/06 08:57:21;;;;;;;10.38;7.05;;;14.00;99.90;;;;;;5055983;28;20122;-68
2022/05/06 08:59:52;;;;;;;10.38;7.22;;;14.10;99.90;;;;;;5055272;28;20124;-68
2022/05/06 09:02:18;;;;;;;11.07;7.18;;;14.20;99.90;;;;;;5055175;28;20041;-68
2022/05/06 09:04:43;;;;;;;6.75;5.85;;;14.30;99.90;;;;;;5054934;28;20106;-68
2022/05/06 09:07:21;;;;;;;8.27;6.18;;;14.40;99.90;;;;;;5055687;28;20359;-68
2022/05/06 09:10:05;;;;;;;8.73;6.47;;;14.40;99.90;;;;;;5055619;28;20059;-68
2022/05/06 09:12:44;;;;;;;6.23;5.63;;;14.40;99.90;;;;;;5055496;28;20041;-69
2022/05/06 09:17:59;;;;;;;6.70;6.00;;;14.70;99.90;;;;;;5054262;28;20475;-69
2022/05/06 09:20:26;;;;;;;10.20;7.22;;;14.80;99.90;;;;;;5055532;28;20451;-67
2022/05/06 09:22:52;;;;;;;8.43;6.43;;;14.90;99.90;;;;;;5055428;28;20049;-67
2022/05/06 09:25:38;;;;;;;7.13;6.22;;;15.10;99.90;;;;;;5037563;28;20455;-67
2022/05/06 09:28:06;;;;;;;7.88;7.00;;;15.30;99.90;;;;;;5055304;28;20128;-67
2022/05/06 09:30:33;;;;;;;8.98;6.97;;;15.30;99.90;;;;;;5055264;28;20044;-68
2022/05/06 09:32:59;;;;;;;8.25;6.68;;;15.30;99.90;;;;;;5051698;28;20083;-67
2022/05/06 09:35:31;;;;;;;8.32;6.93;;;15.40;99.90;;;;;;5055191;28;20064;-67
2022/05/06 09:37:56;;;;;;;7.90;6.93;;;15.40;99.90;;;;;;5037953;28;20048;-68
2022/05/06 09:40:29;;;;;;;9.50;7.90;;;15.60;99.90;;;;;;5055330;28;20049;-68
2022/05/06 09:42:54;;;;;;;9.95;8.10;;;15.60;99.90;;;;;;5052219;28;20044;-68
2022/05/06 09:45:39;;;;;;;10.30;8.70;;;15.70;99.90;;;;;;5037352;28;20052;-68
2022/05/06 09:48:06;;;;;;;10.52;8.68;;;15.70;99.90;;;;;;5054955;28;20080;-68
2022/05/06 09:50:46;;;;;;;11.15;8.48;;;15.70;99.90;;;;;;5055218;28;20095;-67
2022/05/06 09:53:13;;;;;;;10.73;9.43;;;15.70;99.90;;;;;;5054948;28;20041;-68
2022/05/06 09:55:41;;;;;;;13.55;9.57;;;15.80;99.90;;;;;;5054940;28;20114;-69
2022/05/06 09:58:08;;;;;;;12.57;8.85;;;15.90;99.90;;;;;;5054910;28;20044;-69
2022/05/06 10:00:35;;;;;;;11.27;9.20;;;15.90;99.90;;;;;;5053826;28;20049;-69
2022/05/06 10:03:02;;;;;;;11.75;10.02;;;16.00;99.90;;;;;;5054703;28;20037;-69
2022/05/06 10:05:29;;;;;;;14.82;10.98;;;15.90;99.90;;;;;;5054788;28;20052;-67
2022/05/06 10:07:58;;;;;;;13.35;10.38;;;16.10;99.90;;;;;;5054845;28;20082;-67
2022/05/06 10:10:27;;;;;;;10.43;9.20;;;16.30;99.90;;;;;;5054709;28;20049;-67
2022/05/06 10:12:58;;;;;;;9.90;8.50;;;16.30;99.90;;;;;;5054661;28;20067;-69
2022/05/06 10:15:27;;;;;;;10.52;8.88;;;16.40;99.90;;;;;;5053510;28;20469;-69
2022/05/06 10:17:53;;;;;;;15.35;10.27;;;16.30;99.90;;;;;;5035107;28;20065;-69
2022/05/06 10:20:41;;;;;;;13.43;10.20;;;16.30;99.90;;;;;;5034678;28;20059;-69
2022/05/06 10:23:11;;;;;;;11.38;9.65;;;16.30;99.90;;;;;;5024750;28;20069;-69
2022/05/06 10:25:40;;;;;;;9.60;7.88;;;16.40;99.90;;;;;;5034774;28;20049;-70
2022/05/06 10:34:12;;;;;;;11.75;8.70;;;16.70;99.90;;;;;;5054034;28;20056;-70
2022/05/06 10:36:46;;;;;;;9.02;8.13;;;16.80;99.90;;;;;;5054399;28;20060;-69
2022/05/06 10:39:19;;;;;;;9.32;7.60;;;16.70;99.90;;;;;;5054475;28;20129;-69
2022/05/06 10:42:07;;;;;;;10.75;8.80;;;16.60;99.90;;;;;;5036857;28;20570;-69
2022/05/06 10:44:48;;;;;;;16.35;12.38;;;16.70;99.90;;;;;;5035939;28;20063;-69
2022/05/06 10:47:17;;;;;;;12.57;8.27;;;16.60;99.90;;;;;;5054248;28;20049;-69
2022/05/06 10:49:43;;;;;;;8.80;7.72;;;16.90;99.90;;;;;;5054511;28;20040;-70
2022/05/06 10:52:33;;;;;;;9.07;7.68;;;16.90;99.90;;;;;;5054249;28;20451;-69
2022/05/06 10:55:00;;;;;;;9.00;7.47;;;17.00;99.90;;;;;;5043452;28;20092;-70
2022/05/06 10:57:31;;;;;;;10.25;7.32;;;17.00;99.90;;;;;;5053447;28;20056;-69
2022/05/06 10:59:57;;;;;;;8.52;6.97;;;17.10;99.90;;;;;;5017145;28;20052;-69
2022/05/06 11:02:28;;;;;;;8.88;7.25;;;17.20;99.90;;;;;;5016881;28;20053;-69
2022/05/06 11:04:58;;;;;;;8.10;6.80;;;17.30;99.90;;;;;;5034520;28;20068;-70
2022/05/06 11:07:25;;;;;;;9.52;7.32;;;17.40;99.90;;;;;;5034065;28;20045;-70
2022/05/06 11:09:51;;;;;;;7.65;6.85;;;17.60;99.90;;;;;;5034448;28;20053;-69
2022/05/06 11:12:38;;;;;;;12.02;7.88;;;17.50;99.90;;;;;;5034777;28;20045;-69
2022/05/06 11:15:06;;;;;;;10.10;8.07;;;17.70;99.90;;;;;;5054290;28;20101;-69
2022/05/06 11:17:33;;;;;;;11.95;8.50;;;17.70;99.90;;;;;;5051064;28;20432;-69
2022/05/06 11:20:00;;;;;;;10.68;9.00;;;17.70;99.90;;;;;;5054022;28;20041;-70
2022/05/06 11:22:25;;;;;;;12.93;8.85;;;17.70;99.90;;;;;;5053680;28;20508;-69
2022/05/06 11:24:58;;;;;;;13.73;9.52;;;17.80;99.90;;;;;;5056604;28;20045;-69
2022/05/06 11:27:24;;;;;;;11.23;9.40;;;18.00;99.90;;;;;;5056482;28;20399;-69
2022/05/06 11:29:51;;;;;;;11.40;8.45;;;18.10;99.90;;;;;;5056624;28;20091;-69
2022/05/06 11:32:17;;;;;;;11.65;9.00;;;18.20;99.90;;;;;;5057572;28;20469;-69
2022/05/06 11:35:14;;;;;;;12.25;9.27;;;18.40;99.90;;;;;;5039783;28;20099;-69
2022/05/06 11:37:41;;;;;;;15.63;9.55;;;18.20;99.90;;;;;;5024737;28;20095;-69
2022/05/06 11:40:32;;;;;;;13.57;10.55;;;18.30;99.90;;;;;;5040123;28;20045;-69
2022/05/06 11:43:04;;;;;;;15.80;11.63;;;18.30;99.90;;;;;;5056485;28;20106;-70
2022/05/06 11:48:18;;;;;;;13.43;10.15;;;18.60;99.90;;;;;;5037342;28;20057;-69
2022/05/06 11:50:46;;;;;;;12.27;10.43;;;18.70;99.90;;;;;;5037302;28;20037;-69
2022/05/06 11:53:14;;;;;;;14.70;10.10;;;18.90;99.90;;;;;;5019807;28;20045;-70
2022/05/06 11:55:46;;;;;;;12.68;10.35;;;19.00;99.90;;;;;;5037089;28;20075;-70
2022/05/06 11:58:13;;;;;;;14.85;10.27;;;19.00;99.90;;;;;;5040475;28;20052;-69
2022/05/06 12:00:39;;;;;;;18.83;13.05;;;19.00;99.90;;;;;;5056997;28;20135;-70
2022/05/06 12:03:09;;;;;;;15.07;12.38;;;18.90;99.90;;;;;;5056929;28;20048;-69
2022/05/06 12:05:37;;;;;;;13.07;11.15;;;19.10;99.90;;;;;;5056908;28;20053;-70
2022/05/06 12:08:02;;;;;;;13.85;10.98;;;19.20;99.90;;;;;;5055603;28;20095;-70
2022/05/06 12:10:38;;;;;;;15.80;12.13;;;19.30;99.90;;;;;;5056739;28;20470;-70
2022/05/06 12:13:08;;;;;;;13.23;11.88;;;19.30;99.90;;;;;;5057157;28;20056;-70
2022/05/06 12:15:38;;;;;;;15.60;12.82;;;19.50;99.90;;;;;;5056714;28;20049;-68
2022/05/06 12:18:06;;;;;;;13.60;12.20;;;19.60;99.90;;;;;;5056707;28;20428;-68
2022/05/06 12:20:41;;;;;;;14.90;11.48;;;19.70;99.90;;;;;;5039061;28;20041;-70
2022/05/06 12:23:08;;;;;;;14.98;11.50;;;19.80;99.90;;;;;;5055199;28;20405;-70
2022/05/06 12:25:35;;;;;;;13.15;11.68;;;20.00;99.90;;;;;;5054581;28;20033;-69
2022/05/06 12:28:10;;;;;;;14.05;12.40;;;20.00;99.90;;;;;;5056630;28;20064;-68
2022/05/06 12:30:37;;;;;;;14.65;12.85;;;20.10;99.90;;;;;;5056750;28;20048;-69
2022/05/06 12:33:10;;;;;;;14.05;12.05;;;20.40;99.90;;;;;;5056131;28;20037;-69
2022/05/06 12:36:05;;;;;;;16.98;13.05;;;20.50;99.90;;;;;;5056325;28;20052;-68
2022/05/06 12:38:40;;;;;;;16.10;13.52;;;20.70;99.90;;;;;;5032162;28;20057;-69
2022/05/06 12:41:34;;;;;;;14.10;12.48;;;21.00;99.90;;;;;;5056574;28;20049;-69
2022/05/06 12:44:18;;;;;;;13.38;11.23;;;21.30;99.90;;;;;;5036705;28;20064;-68
2022/05/06 12:46:44;;;;;;;14.50;10.85;;;21.70;99.90;;;;;;5035859;28;20460;-69
2022/05/06 12:51:55;;;;;;;11.60;10.40;;;21.50;99.90;;;;;;5040001;28;20049;-69
2022/05/06 12:54:22;;;;;;;12.20;10.85;;;21.50;99.90;;;;;;5055982;28;20049;-69
2022/05/06 12:56:48;;;;;;;13.50;11.77;;;21.70;99.90;;;;;;5038620;28;20063;-69
2022/05/06 12:59:14;;;;;;;12.85;10.85;;;21.50;99.90;;;;;;5052774;28;20052;-69
2022/05/06 13:01:40;;;;;;;14.30;12.10;;;21.80;99.90;;;;;;5055684;28;20036;-69
2022/05/06 13:04:06;;;;;;;14.43;12.98;;;21.80;99.90;;;;;;5056035;28;20071;-69
2022/05/06 13:06:32;;;;;;;14.18;12.18;;;21.70;99.90;;;;;;5054679;28;20057;-69
2022/05/06 13:08:58;;;;;;;13.77;11.82;;;22.10;99.90;;;;;;5055695;28;20041;-70
2022/05/06 13:11:24;;;;;;;14.07;12.68;;;22.40;99.90;;;;;;5055861;28;20059;-69
2022/05/06 13:13:49;;;;;;;12.75;11.45;;;22.20;99.90;;;;;;5055656;28;20041;-69
2022/05/06 13:16:15;;;;;;;13.70;12.40;;;22.30;99.90;;;;;;5055643;28;20049;-69